createdAt,value
2018-04-27T00:00:09.665Z,8.10
2018-04-27T00:02:38.209Z,8.00
2018-04-27T00:05:07.213Z,8.00
2018-04-27T00:07:35.961Z,8.00
2018-04-27T00:10:04.209Z,8.10
2018-04-27T00:12:32.924Z,8.00
2018-04-27T00:15:01.685Z,7.90
2018-04-27T00:17:30.192Z,7.90
2018-04-27T00:19:59.444Z,7.80
2018-04-27T00:22:28.912Z,7.80
2018-04-27T00:24:57.601Z,7.80
2018-04-27T00:27:26.034Z,7.70
2018-04-27T00:29:55.770Z,7.70
2018-04-27T00:32:24.200Z,7.70
2018-04-27T00:34:52.644Z,7.70
2018-04-27T00:37:21.172Z,7.60
2018-04-27T00:39:49.870Z,7.60
2018-04-27T00:42:19.664Z,7.60
2018-04-27T00:44:48.368Z,7.50
2018-04-27T00:47:17.024Z,7.60
2018-04-27T00:49:45.733Z,7.60
2018-04-27T00:52:14.172Z,7.50
2018-04-27T00:54:43.394Z,7.40
2018-04-27T00:57:12.244Z,7.40
2018-04-27T00:59:41.491Z,7.40
2018-04-27T01:02:09.931Z,7.40
2018-04-27T01:04:38.629Z,7.40
2018-04-27T01:07:07.331Z,7.30
2018-04-27T01:09:35.929Z,7.20
2018-04-27T01:12:04.071Z,7.20
2018-04-27T01:14:33.264Z,7.10
2018-04-27T01:17:02.799Z,7.10
2018-04-27T01:19:31.521Z,7.00
2018-04-27T01:21:59.969Z,7.00
2018-04-27T01:24:28.385Z,7.00
2018-04-27T01:26:56.906Z,6.90
2018-04-27T01:29:25.332Z,6.90
2018-04-27T01:31:54.086Z,6.90
2018-04-27T01:34:23.470Z,6.90
2018-04-27T01:36:52.672Z,6.80
2018-04-27T01:39:21.623Z,6.80
2018-04-27T01:41:50.322Z,6.80
2018-04-27T01:44:19.008Z,6.70
2018-04-27T01:46:47.542Z,6.70
2018-04-27T01:49:15.978Z,6.70
2018-04-27T01:51:44.482Z,6.60
2018-04-27T01:54:13.241Z,6.70
2018-04-27T01:56:42.444Z,6.60
2018-04-27T01:59:11.689Z,6.60
2018-04-27T02:01:40.104Z,6.50
2018-04-27T02:04:09.316Z,6.50
2018-04-27T02:06:38.512Z,6.50
2018-04-27T02:09:07.700Z,6.50
2018-04-27T02:11:36.417Z,6.40
2018-04-27T02:14:05.000Z,6.40
2018-04-27T02:16:33.440Z,6.40
2018-04-27T02:19:03.377Z,6.60
2018-04-27T02:21:32.096Z,6.50
2018-04-27T02:24:02.066Z,6.40
2018-04-27T02:26:31.075Z,6.40
2018-04-27T02:29:00.275Z,6.30
2018-04-27T02:31:28.974Z,6.30
2018-04-27T02:33:58.470Z,6.20
2018-04-27T02:36:26.909Z,6.20
2018-04-27T02:38:55.616Z,6.20
2018-04-27T02:41:24.815Z,6.20
2018-04-27T02:43:53.315Z,6.10
2018-04-27T02:46:21.777Z,6.20
2018-04-27T02:48:50.993Z,6.10
2018-04-27T02:51:19.480Z,6.00
2018-04-27T02:53:48.536Z,6.10
2018-04-27T02:56:17.413Z,6.10
2018-04-27T02:58:46.629Z,6.10
2018-04-27T03:01:15.907Z,6.00
2018-04-27T03:03:44.616Z,6.00
2018-04-27T03:06:14.028Z,6.10
2018-04-27T03:08:42.732Z,6.10
2018-04-27T03:11:12.063Z,6.00
2018-04-27T03:13:40.920Z,6.00
2018-04-27T03:16:09.130Z,6.00
2018-04-27T03:18:37.739Z,6.00
2018-04-27T03:21:06.441Z,5.90
2018-04-27T03:23:34.903Z,5.90
2018-04-27T03:26:03.775Z,5.90
2018-04-27T03:28:32.520Z,5.90
2018-04-27T03:31:01.994Z,5.90
2018-04-27T03:33:30.553Z,5.90
2018-04-27T03:35:58.723Z,5.80
2018-04-27T03:38:27.435Z,5.80
2018-04-27T03:40:56.654Z,5.70
2018-04-27T03:43:25.325Z,5.70
2018-04-27T03:45:53.773Z,5.70
2018-04-27T03:48:22.485Z,5.70
2018-04-27T03:50:51.373Z,5.60
2018-04-27T03:53:19.808Z,5.60
2018-04-27T03:55:48.447Z,5.50
2018-04-27T03:58:17.237Z,5.50
2018-04-27T04:00:57.183Z,5.50
2018-04-27T04:03:38.026Z,5.50
2018-04-27T04:06:07.220Z,5.50
2018-04-27T04:08:36.426Z,5.50
2018-04-27T04:11:05.852Z,5.40
2018-04-27T04:13:34.314Z,5.40
2018-04-27T04:16:03.516Z,5.40
2018-04-27T04:18:31.996Z,5.40
2018-04-27T04:21:00.571Z,5.50
2018-04-27T04:23:29.768Z,5.50
2018-04-27T04:25:58.961Z,5.50
2018-04-27T04:28:28.445Z,5.50
2018-04-27T04:30:56.873Z,5.40
2018-04-27T04:33:25.661Z,5.50
2018-04-27T04:35:54.389Z,5.60
2018-04-27T04:38:23.120Z,5.60
2018-04-27T04:40:52.001Z,5.60
2018-04-27T04:43:20.705Z,5.70
2018-04-27T04:45:49.219Z,5.70
2018-04-27T04:48:17.651Z,5.60
2018-04-27T04:50:46.369Z,5.70
2018-04-27T04:53:15.365Z,5.60
2018-04-27T04:55:43.795Z,5.60
2018-04-27T04:58:12.506Z,5.60
2018-04-27T05:00:41.989Z,5.70
2018-04-27T05:03:10.433Z,5.70
2018-04-27T05:05:38.952Z,5.80
2018-04-27T05:08:08.145Z,5.90
2018-04-27T05:10:36.909Z,5.80
2018-04-27T05:13:05.760Z,5.90
2018-04-27T05:15:34.453Z,5.90
2018-04-27T05:18:05.494Z,6.00
2018-04-27T05:20:33.026Z,6.10
2018-04-27T05:23:02.513Z,6.30
2018-04-27T05:25:31.479Z,6.20
2018-04-27T05:28:00.701Z,6.40
2018-04-27T05:30:29.228Z,6.50
2018-04-27T05:33:04.839Z,6.50
2018-04-27T05:35:32.658Z,6.70
2018-04-27T05:38:01.396Z,6.80
2018-04-27T05:40:29.184Z,6.90
2018-04-27T05:42:57.300Z,7.00
2018-04-27T05:45:25.842Z,7.20
2018-04-27T05:47:54.461Z,7.20
2018-04-27T05:50:22.300Z,7.30
2018-04-27T05:52:50.528Z,7.40
2018-04-27T05:55:18.306Z,7.40
2018-04-27T05:57:47.019Z,7.50
2018-04-27T06:00:15.382Z,7.50
2018-04-27T06:02:43.851Z,7.60
2018-04-27T06:05:13.324Z,8.00
2018-04-27T06:07:41.784Z,7.90
2018-04-27T06:10:10.810Z,8.10
2018-04-27T06:12:39.416Z,8.30
2018-04-27T06:15:08.155Z,8.40
2018-04-27T06:17:36.884Z,8.70
2018-04-27T06:20:04.694Z,8.80
2018-04-27T06:22:33.428Z,8.90
2018-04-27T06:25:02.737Z,9.00
2018-04-27T06:27:31.202Z,9.00
2018-04-27T06:30:05.562Z,9.40
2018-04-27T06:32:33.929Z,9.30
2018-04-27T06:35:02.380Z,9.40
2018-04-27T06:37:30.901Z,9.60
2018-04-27T06:39:59.628Z,9.80
2018-04-27T06:42:27.963Z,9.80
2018-04-27T06:44:56.623Z,10.00
2018-04-27T06:47:25.750Z,10.60
2018-04-27T06:49:53.549Z,10.60
2018-04-27T06:52:22.529Z,11.50
2018-04-27T06:54:50.987Z,11.50
2018-04-27T06:57:19.129Z,12.00
2018-04-27T06:59:47.169Z,12.50
2018-04-27T07:02:14.937Z,12.90
2018-04-27T07:04:43.038Z,13.10
2018-04-27T07:07:11.061Z,13.40
2018-04-27T07:09:39.601Z,13.20
2018-04-27T07:12:07.583Z,13.20
2018-04-27T07:14:35.615Z,13.20
2018-04-27T07:17:04.125Z,13.80
2018-04-27T07:19:32.985Z,14.20
2018-04-27T07:22:01.269Z,14.20
2018-04-27T07:24:29.700Z,14.20
2018-04-27T07:26:58.944Z,14.10
2018-04-27T07:29:27.956Z,14.00
2018-04-27T07:31:56.584Z,14.60
2018-04-27T07:34:24.684Z,15.40
2018-04-27T07:36:53.751Z,15.50
2018-04-27T07:39:22.406Z,15.50
2018-04-27T07:41:50.620Z,15.70
2018-04-27T07:44:18.558Z,15.70
2018-04-27T07:46:47.425Z,16.00
2018-04-27T07:49:15.375Z,16.00
2018-04-27T07:51:44.505Z,16.20
2018-04-27T07:54:13.033Z,16.40
2018-04-27T07:56:41.873Z,16.50
2018-04-27T07:59:10.735Z,16.60
2018-04-27T08:01:38.840Z,16.60
2018-04-27T08:04:07.183Z,16.30
2018-04-27T08:06:35.220Z,16.30
2018-04-27T08:09:02.764Z,16.60
2018-04-27T08:11:30.893Z,16.60
2018-04-27T08:13:58.668Z,16.60
2018-04-27T08:16:26.222Z,17.60
2018-04-27T08:18:54.430Z,18.60
2018-04-27T08:21:22.215Z,18.80
2018-04-27T08:23:50.251Z,19.10
2018-04-27T08:26:29.431Z,19.60
2018-04-27T08:28:59.163Z,19.90
2018-04-27T08:31:27.625Z,19.80
2018-04-27T08:33:55.891Z,20.40
2018-04-27T08:36:24.328Z,20.70
2018-04-27T08:38:53.524Z,20.50
2018-04-27T08:41:22.756Z,20.40
2018-04-27T08:43:51.730Z,20.40
2018-04-27T08:46:19.984Z,20.30
2018-04-27T08:48:48.601Z,19.90
2018-04-27T08:51:17.277Z,19.90
2018-04-27T08:53:45.041Z,20.60
2018-04-27T08:56:12.816Z,21.00
2018-04-27T08:58:40.744Z,20.70
2018-04-27T09:01:09.629Z,21.70
2018-04-27T09:03:38.167Z,21.60
2018-04-27T09:06:06.622Z,21.90
2018-04-27T09:08:35.148Z,22.10
2018-04-27T09:11:04.344Z,21.20
2018-04-27T09:13:33.036Z,21.20
2018-04-27T09:16:01.389Z,21.60
2018-04-27T09:18:30.111Z,21.90
2018-04-27T09:20:58.592Z,22.50
2018-04-27T09:23:27.589Z,22.80
2018-04-27T09:25:55.828Z,22.50
2018-04-27T09:28:23.762Z,22.70
2018-04-27T09:30:52.458Z,22.60
2018-04-27T09:33:22.252Z,22.20
2018-04-27T09:35:51.656Z,22.20
2018-04-27T09:38:20.108Z,22.60
2018-04-27T09:40:49.000Z,23.20
2018-04-27T09:43:17.538Z,23.50
2018-04-27T09:45:45.302Z,23.50
2018-04-27T09:48:13.089Z,23.20
2018-04-27T09:50:40.936Z,23.80
2018-04-27T09:53:08.885Z,23.90
2018-04-27T09:55:37.334Z,23.90
2018-04-27T09:58:05.842Z,23.40
2018-04-27T10:00:33.964Z,22.90
2018-04-27T10:03:03.361Z,23.30
2018-04-27T10:05:32.615Z,24.50
2018-04-27T10:08:01.037Z,24.40
2018-04-27T10:10:29.151Z,25.30
2018-04-27T10:12:58.495Z,25.20
2018-04-27T10:15:27.201Z,25.20
2018-04-27T10:17:56.705Z,24.30
2018-04-27T10:20:25.049Z,24.30
2018-04-27T10:22:54.423Z,24.90
2018-04-27T10:25:23.008Z,25.30
2018-04-27T10:27:51.438Z,25.60
2018-04-27T10:30:19.555Z,25.90
2018-04-27T10:32:48.422Z,25.90
2018-04-27T10:35:16.967Z,26.30
2018-04-27T10:37:46.936Z,26.10
2018-04-27T10:40:15.683Z,26.10
2018-04-27T10:42:44.200Z,26.30
2018-04-27T10:45:13.110Z,26.50
2018-04-27T10:47:40.907Z,27.20
2018-04-27T10:50:08.725Z,26.20
2018-04-27T10:52:36.948Z,25.30
2018-04-27T10:55:05.032Z,25.70
2018-04-27T10:57:33.172Z,26.20
2018-04-27T11:00:01.139Z,27.00
2018-04-27T11:02:29.069Z,27.50
2018-04-27T11:04:57.291Z,27.00
2018-04-27T11:07:25.085Z,26.90
2018-04-27T11:09:53.643Z,27.60
2018-04-27T11:12:21.676Z,27.60
2018-04-27T11:14:50.469Z,28.40
2018-04-27T11:17:18.253Z,28.40
2018-04-27T11:19:46.100Z,28.50
2018-04-27T11:22:14.970Z,28.60
2018-04-27T11:24:43.729Z,28.90
2018-04-27T11:27:11.764Z,28.90
2018-04-27T11:29:40.328Z,28.50
2018-04-27T11:32:09.805Z,29.20
2018-04-27T11:34:38.412Z,29.20
2018-04-27T11:37:07.574Z,29.60
2018-04-27T11:39:37.070Z,29.90
2018-04-27T11:42:05.766Z,29.80
2018-04-27T11:44:35.272Z,29.30
2018-04-27T11:47:03.403Z,29.30
2018-04-27T11:49:31.780Z,29.10
2018-04-27T11:51:59.558Z,29.60
2018-04-27T11:54:28.352Z,30.00
2018-04-27T11:56:56.698Z,29.80
2018-04-27T11:59:24.725Z,29.60
2018-04-27T12:01:52.485Z,29.90
2018-04-27T12:04:20.253Z,30.70
2018-04-27T12:06:47.948Z,31.00
2018-04-27T12:09:15.978Z,31.00
2018-04-27T12:11:44.808Z,29.80
2018-04-27T12:14:12.602Z,29.80
2018-04-27T12:16:41.364Z,30.50
2018-04-27T12:19:10.080Z,30.40
2018-04-27T12:21:38.686Z,30.80
2018-04-27T12:24:07.284Z,30.30
2018-04-27T12:26:35.940Z,29.60
2018-04-27T12:29:04.698Z,29.40
2018-04-27T12:31:33.449Z,29.30
2018-04-27T12:34:02.070Z,29.10
2018-04-27T12:36:29.831Z,29.50
2018-04-27T12:38:57.706Z,30.10
2018-04-27T12:41:25.927Z,30.50
2018-04-27T12:43:54.105Z,31.00
2018-04-27T12:46:22.037Z,30.80
2018-04-27T12:48:49.871Z,30.80
2018-04-27T12:51:17.665Z,30.10
2018-04-27T12:53:46.219Z,29.20
2018-04-27T12:56:14.241Z,29.20
2018-04-27T12:58:42.426Z,29.00
2018-04-27T13:01:12.224Z,30.10
2018-04-27T13:03:40.512Z,30.10
2018-04-27T13:06:09.308Z,29.80
2018-04-27T13:08:37.103Z,29.80
2018-04-27T13:11:05.144Z,29.80
2018-04-27T13:13:33.432Z,29.40
2018-04-27T13:16:01.243Z,29.40
2018-04-27T13:18:30.765Z,30.20
2018-04-27T13:20:59.204Z,30.20
2018-04-27T13:23:28.412Z,30.70
2018-04-27T13:25:57.140Z,30.70
2018-04-27T13:28:25.819Z,30.70
2018-04-27T13:30:53.593Z,31.20
2018-04-27T13:33:22.881Z,31.00
2018-04-27T13:35:51.671Z,31.00
2018-04-27T13:38:21.138Z,31.20
2018-04-27T13:40:50.001Z,31.20
2018-04-27T13:43:18.453Z,31.20
2018-04-27T13:45:47.003Z,30.90
2018-04-27T13:48:15.486Z,30.40
2018-04-27T13:50:43.221Z,30.70
2018-04-27T13:53:11.433Z,30.90
2018-04-27T13:55:40.348Z,30.80
2018-04-27T13:58:08.140Z,30.40
2018-04-27T14:00:35.989Z,30.10
2018-04-27T14:03:04.317Z,30.20
2018-04-27T14:05:32.451Z,30.20
2018-04-27T14:08:00.390Z,30.00
2018-04-27T14:10:28.158Z,30.10
2018-04-27T14:12:56.264Z,30.60
2018-04-27T14:15:24.296Z,30.70
2018-04-27T14:17:52.090Z,30.90
2018-04-27T14:20:20.156Z,30.40
2018-04-27T14:22:48.677Z,30.60
2018-04-27T14:25:17.378Z,30.50
2018-04-27T14:27:45.508Z,30.70
2018-04-27T14:30:13.732Z,30.40
2018-04-27T14:32:42.270Z,30.30
2018-04-27T14:35:11.617Z,30.40
2018-04-27T14:37:40.241Z,30.40
2018-04-27T14:40:08.337Z,30.50
2018-04-27T14:42:36.489Z,30.10
2018-04-27T14:45:04.262Z,30.60
2018-04-27T14:47:33.472Z,30.40
2018-04-27T14:50:02.176Z,30.30
2018-04-27T14:52:30.976Z,30.20
2018-04-27T14:54:59.762Z,31.20
2018-04-27T14:57:27.526Z,30.90
2018-04-27T14:59:55.542Z,30.80
2018-04-27T15:02:24.364Z,30.50
2018-04-27T15:04:53.477Z,30.50
2018-04-27T15:07:23.322Z,30.10
2018-04-27T15:09:52.348Z,30.00
2018-04-27T15:12:21.068Z,30.10
2018-04-27T15:14:49.268Z,30.40
2018-04-27T15:17:17.968Z,30.30
2018-04-27T15:19:47.228Z,30.20
2018-04-27T15:22:15.794Z,30.10
2018-04-27T15:24:44.353Z,29.90
2018-04-27T15:27:12.137Z,30.10
2018-04-27T15:29:40.285Z,30.30
2018-04-27T15:32:09.690Z,29.90
2018-04-27T15:34:38.166Z,29.90
2018-04-27T15:37:06.195Z,29.60
2018-04-27T15:39:34.561Z,29.30
2018-04-27T15:42:02.343Z,28.90
2018-04-27T15:44:30.110Z,28.10
2018-04-27T15:46:58.346Z,27.70
2018-04-27T15:49:27.782Z,27.20
2018-04-27T15:51:55.571Z,27.20
2018-04-27T15:54:24.175Z,26.90
2018-04-27T15:56:52.628Z,26.90
2018-04-27T15:59:21.344Z,26.30
2018-04-27T16:01:49.733Z,25.50
2018-04-27T16:04:17.777Z,24.80
2018-04-27T16:06:47.775Z,23.70
2018-04-27T16:09:16.154Z,23.60
2018-04-27T16:11:44.573Z,23.30
2018-04-27T16:14:12.615Z,23.30
2018-04-27T16:16:41.149Z,23.20
2018-04-27T16:19:09.953Z,23.00
2018-04-27T16:21:37.900Z,23.00
2018-04-27T16:24:06.709Z,23.10
2018-04-27T16:26:34.752Z,23.10
2018-04-27T16:29:03.478Z,23.10
2018-04-27T16:31:31.328Z,22.90
2018-04-27T16:33:59.375Z,22.60
2018-04-27T16:36:27.948Z,22.60
2018-04-27T16:38:55.880Z,22.60
2018-04-27T16:41:23.853Z,22.60
2018-04-27T16:43:52.514Z,22.60
2018-04-27T16:46:20.716Z,22.50
2018-04-27T16:48:49.194Z,22.60
2018-04-27T16:51:17.909Z,22.60
2018-04-27T16:53:46.372Z,22.60
2018-04-27T16:56:14.683Z,22.60
2018-04-27T16:58:43.228Z,22.20
2018-04-27T17:01:11.339Z,22.20
2018-04-27T17:03:39.172Z,22.10
2018-04-27T17:06:07.679Z,22.00
2018-04-27T17:08:36.014Z,22.00
2018-04-27T17:11:03.930Z,21.80
2018-04-27T17:13:31.812Z,21.90
2018-04-27T17:15:59.963Z,21.90
2018-04-27T17:18:27.728Z,21.70
2018-04-27T17:20:55.788Z,21.60
2018-04-27T17:23:23.591Z,21.50
2018-04-27T17:25:51.947Z,21.40
2018-04-27T17:28:19.709Z,21.30
2018-04-27T17:30:47.749Z,21.20
2018-04-27T17:33:15.793Z,21.20
2018-04-27T17:35:44.450Z,20.80
2018-04-27T17:38:12.246Z,20.80
2018-04-27T17:40:40.457Z,20.80
2018-04-27T17:43:08.707Z,20.70
2018-04-27T17:45:36.510Z,20.60
2018-04-27T17:48:04.457Z,20.50
2018-04-27T17:50:34.600Z,20.50
2018-04-27T17:53:04.045Z,20.10
2018-04-27T17:55:32.102Z,20.10
2018-04-27T17:58:00.722Z,20.00
2018-04-27T18:00:28.901Z,19.80
2018-04-27T18:02:57.029Z,19.80
2018-04-27T18:05:25.789Z,19.60
2018-04-27T18:07:54.541Z,19.50
2018-04-27T18:10:22.657Z,19.40
2018-04-27T18:12:51.104Z,19.40
2018-04-27T18:15:19.917Z,19.30
2018-04-27T18:17:47.804Z,19.20
2018-04-27T18:20:15.854Z,19.20
2018-04-27T18:22:44.700Z,19.10
2018-04-27T18:25:14.074Z,19.00
2018-04-27T18:27:42.332Z,18.90
2018-04-27T18:30:10.565Z,18.90
2018-04-27T18:32:39.040Z,18.80
2018-04-27T18:35:08.592Z,18.70
2018-04-27T18:37:37.584Z,18.70
2018-04-27T18:40:06.480Z,18.70
2018-04-27T18:42:34.392Z,18.60
2018-04-27T18:45:03.127Z,18.60
2018-04-27T18:47:31.686Z,18.50
2018-04-27T18:49:59.735Z,18.50
2018-04-27T18:52:27.724Z,18.50
2018-04-27T18:54:56.461Z,18.50
2018-04-27T18:57:25.256Z,18.50
2018-04-27T18:59:53.085Z,18.40
2018-04-27T19:02:21.143Z,18.40
2018-04-27T19:04:49.961Z,18.40
2018-04-27T19:07:19.932Z,18.30
2018-04-27T19:09:47.829Z,18.30
2018-04-27T19:12:15.753Z,18.20
2018-04-27T19:14:43.764Z,18.10
2018-04-27T19:17:14.427Z,17.90
2018-04-27T19:19:42.372Z,18.00
2018-04-27T19:22:11.020Z,17.90
2018-04-27T19:24:40.408Z,17.90
2018-04-27T19:27:08.258Z,17.90
2018-04-27T19:29:36.388Z,17.90
2018-04-27T19:32:05.107Z,17.90
2018-04-27T19:34:33.926Z,17.90
2018-04-27T19:37:01.728Z,17.90
2018-04-27T19:39:30.497Z,17.90
2018-04-27T19:41:58.812Z,17.90
2018-04-27T19:44:26.614Z,17.90
2018-04-27T19:46:54.393Z,17.80
2018-04-27T19:49:22.183Z,17.70
2018-04-27T19:51:50.277Z,17.50
2018-04-27T19:54:18.143Z,17.50
2018-04-27T19:56:46.020Z,17.30
2018-04-27T19:59:15.054Z,17.20
2018-04-27T20:01:43.839Z,17.20
2018-04-27T20:04:12.687Z,17.20
2018-04-27T20:06:43.833Z,17.10
2018-04-27T20:09:11.900Z,17.10
2018-04-27T20:11:39.677Z,17.20
2018-04-27T20:14:08.373Z,17.10
2018-04-27T20:16:37.014Z,16.90
2018-04-27T20:19:08.573Z,16.80
2018-04-27T20:21:36.602Z,16.90
2018-04-27T20:24:06.581Z,16.90
2018-04-27T20:26:34.389Z,16.90
2018-04-27T20:29:03.777Z,16.80
2018-04-27T20:31:31.849Z,16.80
2018-04-27T20:33:59.661Z,16.80
2018-04-27T20:36:27.526Z,16.80
2018-04-27T20:38:55.224Z,16.70
2018-04-27T20:41:24.651Z,16.70
2018-04-27T20:43:53.316Z,16.60
2018-04-27T20:46:21.384Z,16.60
2018-04-27T20:48:50.956Z,16.60
2018-04-27T20:51:20.516Z,16.50
2018-04-27T20:53:51.595Z,16.50
2018-04-27T20:56:20.184Z,16.30
2018-04-27T20:58:48.344Z,16.30
2018-04-27T21:01:16.128Z,16.20
2018-04-27T21:03:43.900Z,16.10
2018-04-27T21:06:11.454Z,16.10
2018-04-27T21:08:39.500Z,16.20
2018-04-27T21:11:07.447Z,16.20
2018-04-27T21:13:35.493Z,16.00
2018-04-27T21:16:03.253Z,15.90
2018-04-27T21:18:31.785Z,15.90
2018-04-27T21:20:59.885Z,15.90
2018-04-27T21:23:27.649Z,15.90
2018-04-27T21:25:55.459Z,15.70
2018-04-27T21:28:24.072Z,15.80
2018-04-27T21:30:53.342Z,15.80
2018-04-27T21:33:28.452Z,15.80
2018-04-27T21:35:56.879Z,15.80
2018-04-27T21:41:25.437Z,15.80
2018-04-27T21:44:02.818Z,15.80
2018-04-27T21:46:30.599Z,15.80
2018-04-27T21:48:58.633Z,15.80
2018-04-27T21:51:31.387Z,15.90
2018-04-27T21:54:14.901Z,15.90
2018-04-27T21:56:54.719Z,15.80
2018-04-27T22:02:54.488Z,15.90
2018-04-27T22:08:42.027Z,16.00
2018-04-27T22:11:29.468Z,15.90
2018-04-27T22:13:57.301Z,15.90
2018-04-27T22:16:33.917Z,15.90
2018-04-27T22:19:01.680Z,15.90
2018-04-27T22:21:29.748Z,15.80
2018-04-27T22:24:04.339Z,15.60
2018-04-27T22:26:31.945Z,15.70
2018-04-27T22:29:06.330Z,15.60
2018-04-27T22:31:35.171Z,15.40
2018-04-27T22:34:04.986Z,15.40
2018-04-27T22:36:36.164Z,15.40
2018-04-27T22:42:09.161Z,15.20
2018-04-27T22:44:38.406Z,15.00
2018-04-27T22:47:06.457Z,15.00
2018-04-27T22:49:35.265Z,14.80
2018-04-27T22:52:03.306Z,14.80
2018-04-27T22:54:35.365Z,14.70
2018-04-27T22:57:09.302Z,14.60
2018-04-27T22:59:37.600Z,14.50
2018-04-27T23:02:05.466Z,14.40
2018-04-27T23:04:33.513Z,14.30
2018-04-27T23:07:01.302Z,14.30
2018-04-27T23:09:29.253Z,14.30
2018-04-27T23:11:57.285Z,14.20
2018-04-27T23:14:31.346Z,14.20
2018-04-27T23:17:14.422Z,14.20
2018-04-27T23:19:53.230Z,14.10
2018-04-27T23:22:33.369Z,14.10
2018-04-27T23:25:01.719Z,14.20
2018-04-27T23:27:31.322Z,14.10
2018-04-27T23:29:59.637Z,14.10
2018-04-27T23:32:27.905Z,14.10
2018-04-27T23:34:56.541Z,14.00
2018-04-27T23:37:24.456Z,14.00
2018-04-27T23:39:52.990Z,13.80
2018-04-27T23:42:22.269Z,13.80
2018-04-27T23:44:50.256Z,13.80
2018-04-27T23:47:19.070Z,13.70
2018-04-27T23:49:47.100Z,13.70
2018-04-27T23:52:14.932Z,13.70
2018-04-27T23:54:42.997Z,13.60
2018-04-27T23:57:11.620Z,13.60
2018-04-27T23:59:44.217Z,13.60
